Time;durP1;ratioP1;P1;durP2;ratioP2;P2;SDS_P1;SDS_P2;PMS_P1;PMS_P2;Temp;Humidity;BMP_temperature;BMP_pressure;BME280_temperature;BME280_humidity;BME280_pressure;Samples;Min_cycle;Max_cycle;Signal;HPM_P1;HPM_P2
2022/08/06 00:00:19;;;;;;;2.47;0.60;;;;;;;;;;5051955;28;20781;-14
2022/08/06 00:02:54;;;;;;;1.33;0.50;;;;;;;;;;5038762;28;20332;-14
2022/08/06 00:05:22;;;;;;;2.75;0.70;;;;;;;;;;5051648;28;20292;-14
2022/08/06 00:08:01;;;;;;;1.60;0.50;;;;;;;;;;5051750;28;20226;-14
2022/08/06 00:10:28;;;;;;;2.72;0.85;;;;;;;;;;5051077;28;20240;-14
2022/08/06 00:12:57;;;;;;;2.33;0.57;;;;;;;;;;5051644;28;20226;-14
2022/08/06 00:15:26;;;;;;;1.80;0.60;;;;;;;;;;5054724;28;20332;-14
2022/08/06 00:18:15;;;;;;;1.88;0.60;;;;;;;;;;5045905;28;20230;-14
2022/08/06 00:20:44;;;;;;;1.30;0.65;;;;;;;;;;5051257;28;20242;-14
2022/08/06 00:23:16;;;;;;;1.25;0.80;;;;;;;;;;5037621;28;20265;-14
2022/08/06 00:25:44;;;;;;;1.50;0.70;;;;;;;;;;5051496;28;20244;-14
2022/08/06 00:28:19;;;;;;;1.60;0.57;;;;;;;;;;5051134;28;20283;-14
2022/08/06 00:30:46;;;;;;;1.05;0.40;;;;;;;;;;5057066;28;20317;-14
2022/08/06 00:33:16;;;;;;;4.97;0.95;;;;;;;;;;5051941;28;20903;-14
2022/08/06 00:35:43;;;;;;;1.77;0.93;;;;;;;;;;5051522;28;20350;-14
2022/08/06 00:38:13;;;;;;;2.92;0.73;;;;;;;;;;5050757;28;20312;-14
2022/08/06 00:40:41;;;;;;;1.88;0.80;;;;;;;;;;5051349;28;20226;-14
2022/08/06 00:43:24;;;;;;;1.75;0.50;;;;;;;;;;5050252;28;20329;-14
2022/08/06 00:45:52;;;;;;;1.88;0.52;;;;;;;;;;5053528;28;20628;-14
2022/08/06 00:48:23;;;;;;;1.48;0.75;;;;;;;;;;5050746;28;20930;-14
2022/08/06 00:51:04;;;;;;;1.85;0.60;;;;;;;;;;5051095;28;20234;-14
2022/08/06 00:53:38;;;;;;;2.22;0.65;;;;;;;;;;5050261;28;21076;-14
2022/08/06 00:56:10;;;;;;;1.85;0.50;;;;;;;;;;5051164;28;20309;-14
2022/08/06 00:58:37;;;;;;;1.95;0.50;;;;;;;;;;5050883;28;20242;-14
2022/08/06 01:01:07;;;;;;;2.75;0.60;;;;;;;;;;5059632;28;20237;-14
2022/08/06 01:03:46;;;;;;;2.17;0.50;;;;;;;;;;5052907;28;20226;-14
2022/08/06 01:06:19;;;;;;;1.63;0.80;;;;;;;;;;5050308;28;20261;-14
2022/08/06 01:09:06;;;;;;;1.48;0.60;;;;;;;;;;5050898;28;20245;-14
2022/08/06 01:11:33;;;;;;;2.90;0.63;;;;;;;;;;5050725;28;20238;-14
2022/08/06 01:14:01;;;;;;;1.92;0.95;;;;;;;;;;5050320;28;20238;-14
2022/08/06 01:16:37;;;;;;;1.85;0.50;;;;;;;;;;5049540;28;20226;-14
2022/08/06 01:19:11;;;;;;;2.85;0.60;;;;;;;;;;5050551;28;20283;-14
2022/08/06 01:21:58;;;;;;;2.95;0.70;;;;;;;;;;5050223;28;21047;-14
2022/08/06 01:24:52;;;;;;;3.00;0.73;;;;;;;;;;5037105;28;20234;-14
2022/08/06 01:27:28;;;;;;;2.88;0.82;;;;;;;;;;5051854;28;21091;-14
2022/08/06 01:30:03;;;;;;;2.65;0.40;;;;;;;;;;5048918;28;20321;-14
2022/08/06 01:32:35;;;;;;;1.92;0.80;;;;;;;;;;5048193;28;20238;-14
2022/08/06 01:35:10;;;;;;;2.00;0.77;;;;;;;;;;5048264;28;20232;-14
2022/08/06 01:37:50;;;;;;;2.53;0.88;;;;;;;;;;5047770;28;20638;-14
2022/08/06 01:40:19;;;;;;;2.72;0.50;;;;;;;;;;5050443;28;20238;-14
2022/08/06 01:42:51;;;;;;;2.10;0.70;;;;;;;;;;5047193;28;20227;-14
2022/08/06 01:45:21;;;;;;;2.10;0.70;;;;;;;;;;5042890;28;20226;-14
2022/08/06 01:47:59;;;;;;;2.35;0.70;;;;;;;;;;5051306;28;20346;-14
2022/08/06 01:50:28;;;;;;;1.98;0.60;;;;;;;;;;5050763;28;20234;-14
2022/08/06 01:52:56;;;;;;;2.25;0.73;;;;;;;;;;5050424;28;20237;-14
2022/08/06 01:55:27;;;;;;;2.03;0.70;;;;;;;;;;5050319;28;20261;-14
2022/08/06 01:58:16;;;;;;;1.50;0.60;;;;;;;;;;5049350;28;20234;-14
2022/08/06 02:00:54;;;;;;;1.63;0.70;;;;;;;;;;5056779;28;20255;-14
2022/08/06 02:03:25;;;;;;;1.67;0.60;;;;;;;;;;5052451;28;20237;-14
2022/08/06 02:06:05;;;;;;;2.85;0.80;;;;;;;;;;5038317;28;20235;-14
2022/08/06 02:08:34;;;;;;;1.63;0.60;;;;;;;;;;5047788;28;20280;-14
2022/08/06 02:11:07;;;;;;;2.33;0.60;;;;;;;;;;5049723;28;20237;-14
2022/08/06 02:13:56;;;;;;;2.25;0.82;;;;;;;;;;5042588;28;20236;-14
2022/08/06 02:16:23;;;;;;;3.17;0.80;;;;;;;;;;5068481;28;20257;-14
2022/08/06 02:18:53;;;;;;;1.42;0.68;;;;;;;;;;5050596;28;20230;-14
2022/08/06 02:21:21;;;;;;;1.80;0.55;;;;;;;;;;5067591;22;20241;-17
2022/08/06 02:23:59;;;;;;;3.13;0.60;;;;;;;;;;5072908;28;20228;-17
2022/08/06 02:26:26;;;;;;;2.42;0.68;;;;;;;;;;5077137;28;20259;-17
2022/08/06 02:29:01;;;;;;;3.55;0.77;;;;;;;;;;5076724;28;20233;-17
2022/08/06 02:31:29;;;;;;;1.33;0.70;;;;;;;;;;5074316;28;20228;-17
2022/08/06 02:34:14;;;;;;;2.28;0.80;;;;;;;;;;5077343;28;20279;-17
2022/08/06 02:36:42;;;;;;;0.82;0.68;;;;;;;;;;5076885;28;20235;-17
2022/08/06 02:39:20;;;;;;;1.00;0.63;;;;;;;;;;5075976;28;20555;-17
2022/08/06 02:41:57;;;;;;;2.20;0.75;;;;;;;;;;5076520;28;20904;-17
2022/08/06 02:44:32;;;;;;;1.92;0.50;;;;;;;;;;5075618;28;20233;-17
2022/08/06 02:47:00;;;;;;;1.88;1.17;;;;;;;;;;5076032;28;20822;-18
2022/08/06 02:49:29;;;;;;;1.65;0.50;;;;;;;;;;5076307;28;20249;-17
2022/08/06 02:51:59;;;;;;;3.45;0.93;;;;;;;;;;5076327;28;20336;-17
2022/08/06 02:54:44;;;;;;;1.42;0.50;;;;;;;;;;5075614;28;20235;-17
2022/08/06 02:57:14;;;;;;;2.45;0.70;;;;;;;;;;5071365;28;20339;-17
2022/08/06 02:59:44;;;;;;;0.90;0.52;;;;;;;;;;5076432;28;20394;-17
2022/08/06 03:02:20;;;;;;;2.05;0.70;;;;;;;;;;5075957;28;20786;-17
2022/08/06 03:04:52;;;;;;;1.52;0.50;;;;;;;;;;5075540;28;20307;-17
2022/08/06 03:07:23;;;;;;;1.65;0.60;;;;;;;;;;5075982;28;20237;-17
2022/08/06 03:09:55;;;;;;;2.65;0.65;;;;;;;;;;5071853;28;20229;-17
2022/08/06 03:12:23;;;;;;;1.90;0.50;;;;;;;;;;5075993;28;20229;-17
2022/08/06 03:14:58;;;;;;;1.40;0.60;;;;;;;;;;5075938;28;20230;-17
2022/08/06 03:17:37;;;;;;;2.38;0.80;;;;;;;;;;5076167;28;20283;-17
2022/08/06 03:20:05;;;;;;;2.58;0.60;;;;;;;;;;5076391;28;20233;-17
2022/08/06 03:22:34;;;;;;;1.23;0.55;;;;;;;;;;5075462;28;20249;-17
2022/08/06 03:25:11;;;;;;;2.22;0.88;;;;;;;;;;5076460;28;20235;-17
2022/08/06 03:27:38;;;;;;;1.10;0.70;;;;;;;;;;5075137;28;20815;-17
2022/08/06 03:30:12;;;;;;;1.52;0.60;;;;;;;;;;5071410;28;20272;-17
2022/08/06 03:32:58;;;;;;;3.42;0.77;;;;;;;;;;5075746;28;20233;-17
2022/08/06 03:35:34;;;;;;;2.85;0.70;;;;;;;;;;5073572;28;20295;-17
2022/08/06 03:38:16;;;;;;;1.65;0.60;;;;;;;;;;5073778;28;20241;-17
2022/08/06 03:40:44;;;;;;;2.35;0.77;;;;;;;;;;5072354;28;20602;-17
2022/08/06 03:43:14;;;;;;;2.35;0.80;;;;;;;;;;5072888;28;20225;-17
2022/08/06 03:45:57;;;;;;;1.85;0.70;;;;;;;;;;5072220;28;20240;-18
2022/08/06 03:48:25;;;;;;;2.85;0.80;;;;;;;;;;5071546;28;20234;-17
2022/08/06 03:51:02;;;;;;;2.17;0.80;;;;;;;;;;5072266;28;20260;-17
2022/08/06 03:53:36;;;;;;;2.92;0.70;;;;;;;;;;5072481;28;20299;-17
2022/08/06 03:56:05;;;;;;;2.30;0.70;;;;;;;;;;5072090;28;20279;-17
2022/08/06 03:58:32;;;;;;;2.13;0.70;;;;;;;;;;5072068;28;21165;-17
2022/08/06 04:01:02;;;;;;;2.08;0.70;;;;;;;;;;5071208;28;20329;-17
2022/08/06 04:03:30;;;;;;;1.92;0.70;;;;;;;;;;5071935;28;20225;-17
2022/08/06 04:06:09;;;;;;;1.77;0.70;;;;;;;;;;5072411;28;20299;-17
2022/08/06 04:08:46;;;;;;;2.00;0.60;;;;;;;;;;5071955;28;20229;-17
2022/08/06 04:11:14;;;;;;;3.80;0.82;;;;;;;;;;5069378;28;20238;-17
2022/08/06 04:14:01;;;;;;;2.03;0.70;;;;;;;;;;5062318;28;20230;-17
2022/08/06 04:16:35;;;;;;;1.70;0.55;;;;;;;;;;5071739;28;21001;-17
2022/08/06 04:19:03;;;;;;;2.17;0.73;;;;;;;;;;5071838;28;20264;-17
2022/08/06 04:21:31;;;;;;;1.80;0.88;;;;;;;;;;5070768;28;20241;-17
2022/08/06 04:24:18;;;;;;;1.20;0.60;;;;;;;;;;5071859;28;20236;-17
2022/08/06 04:26:45;;;;;;;2.58;0.80;;;;;;;;;;5071691;28;20233;-18
2022/08/06 04:29:13;;;;;;;3.92;0.63;;;;;;;;;;5072132;28;20229;-17
2022/08/06 04:31:45;;;;;;;1.88;0.90;;;;;;;;;;5071733;28;20234;-17
2022/08/06 04:34:32;;;;;;;2.58;0.80;;;;;;;;;;5071467;28;20229;-18
2022/08/06 04:37:03;;;;;;;1.38;0.80;;;;;;;;;;5069024;28;20320;-17
2022/08/06 04:39:32;;;;;;;2.58;0.88;;;;;;;;;;5071495;28;20288;-17
2022/08/06 04:42:16;;;;;;;1.75;0.80;;;;;;;;;;5071361;28;20295;-17
2022/08/06 04:44:44;;;;;;;2.03;0.95;;;;;;;;;;5070877;28;20242;-17
2022/08/06 04:47:13;;;;;;;2.35;0.80;;;;;;;;;;5070767;28;20249;-17
2022/08/06 04:49:41;;;;;;;2.33;0.73;;;;;;;;;;5071524;28;20226;-17
2022/08/06 04:52:28;;;;;;;1.90;0.80;;;;;;;;;;5071803;28;20244;-17
2022/08/06 04:55:15;;;;;;;2.03;0.80;;;;;;;;;;5079975;28;20232;-17
2022/08/06 04:58:00;;;;;;;2.17;0.80;;;;;;;;;;5072549;28;20317;-17
2022/08/06 05:00:38;;;;;;;1.52;0.70;;;;;;;;;;5071128;28;20252;-17
2022/08/06 05:03:27;;;;;;;1.83;0.82;;;;;;;;;;5058209;28;20232;-17
2022/08/06 05:06:16;;;;;;;2.30;0.80;;;;;;;;;;5070135;28;20241;-17
2022/08/06 05:08:44;;;;;;;1.95;0.80;;;;;;;;;;5071135;28;20233;-17
2022/08/06 05:11:21;;;;;;;1.70;0.82;;;;;;;;;;5070909;28;20287;-17
2022/08/06 05:13:51;;;;;;;2.55;0.77;;;;;;;;;;5071175;28;20229;-17
2022/08/06 05:16:19;;;;;;;1.60;0.88;;;;;;;;;;5070016;28;20229;-17
2022/08/06 05:18:54;;;;;;;1.88;0.80;;;;;;;;;;5070716;28;20234;-17
2022/08/06 05:21:41;;;;;;;1.45;0.80;;;;;;;;;;5070145;28;20252;-17
2022/08/06 05:24:29;;;;;;;2.08;0.68;;;;;;;;;;5070787;28;20229;-17
2022/08/06 05:27:16;;;;;;;1.63;0.80;;;;;;;;;;5070381;28;20229;-17
2022/08/06 05:29:43;;;;;;;1.90;1.00;;;;;;;;;;5070782;28;20234;-17
2022/08/06 05:32:18;;;;;;;6.65;0.98;;;;;;;;;;5068974;28;20335;-17
2022/08/06 05:34:52;;;;;;;3.33;0.88;;;;;;;;;;5070497;28;20234;-17
2022/08/06 05:37:20;;;;;;;2.42;0.75;;;;;;;;;;5052938;28;20230;-17
2022/08/06 05:40:08;;;;;;;2.55;0.90;;;;;;;;;;5070123;28;20233;-16
2022/08/06 05:42:38;;;;;;;2.28;0.70;;;;;;;;;;5070444;28;20234;-17
2022/08/06 05:45:06;;;;;;;2.38;0.90;;;;;;;;;;5070212;28;20229;-17
2022/08/06 05:47:37;;;;;;;2.67;0.90;;;;;;;;;;5070411;28;20226;-17
2022/08/06 05:50:25;;;;;;;3.03;0.80;;;;;;;;;;5069995;28;20248;-17
2022/08/06 05:52:54;;;;;;;2.35;1.08;;;;;;;;;;5070118;28;20239;-17
2022/08/06 05:55:22;;;;;;;1.35;1.00;;;;;;;;;;5070273;28;20230;-18
2022/08/06 05:58:05;;;;;;;3.20;1.00;;;;;;;;;;5069685;28;20245;-17
2022/08/06 06:00:33;;;;;;;3.10;0.95;;;;;;;;;;5069426;28;20234;-17
2022/08/06 06:03:16;;;;;;;2.38;1.23;;;;;;;;;;5070109;28;20237;-17
2022/08/06 06:05:56;;;;;;;3.20;1.13;;;;;;;;;;5069971;28;20310;-17
2022/08/06 06:08:43;;;;;;;3.88;1.27;;;;;;;;;;5070134;28;20244;-17
2022/08/06 06:11:28;;;;;;;2.85;1.10;;;;;;;;;;5055100;28;20234;-17
2022/08/06 06:14:23;;;;;;;3.50;1.10;;;;;;;;;;5070397;28;20225;-17
2022/08/06 06:17:09;;;;;;;5.00;0.90;;;;;;;;;;5070247;28;20221;-17
2022/08/06 06:19:39;;;;;;;2.78;0.80;;;;;;;;;;5070164;28;20704;-17
2022/08/06 06:22:20;;;;;;;4.07;1.05;;;;;;;;;;5068628;28;20299;-17
2022/08/06 06:24:49;;;;;;;2.28;1.20;;;;;;;;;;5070089;28;20237;-17
2022/08/06 06:27:18;;;;;;;1.75;0.70;;;;;;;;;;5069974;28;20236;-17
2022/08/06 06:30:06;;;;;;;2.40;0.70;;;;;;;;;;5069633;28;20245;-17
2022/08/06 06:32:40;;;;;;;3.83;1.10;;;;;;;;;;5070152;28;20240;-17
2022/08/06 06:35:11;;;;;;;1.88;0.80;;;;;;;;;;5057089;28;20307;-17
2022/08/06 06:37:42;;;;;;;2.03;0.80;;;;;;;;;;5069837;28;20261;-17
2022/08/06 06:40:18;;;;;;;1.55;0.95;;;;;;;;;;5070043;28;20419;-17
2022/08/06 06:42:51;;;;;;;1.67;0.88;;;;;;;;;;5069821;28;20467;-17
2022/08/06 06:45:20;;;;;;;2.58;0.95;;;;;;;;;;5068696;28;20225;-17
2022/08/06 06:48:08;;;;;;;3.03;0.80;;;;;;;;;;5057376;28;20229;-17
2022/08/06 06:50:39;;;;;;;1.63;0.80;;;;;;;;;;5069569;28;20257;-17
2022/08/06 06:53:08;;;;;;;4.38;1.00;;;;;;;;;;5069685;28;20233;-17
2022/08/06 06:55:38;;;;;;;3.05;0.80;;;;;;;;;;5068700;28;20312;-17
2022/08/06 06:58:26;;;;;;;1.30;0.70;;;;;;;;;;5056012;28;20977;-17
2022/08/06 07:00:58;;;;;;;2.15;0.80;;;;;;;;;;5069322;28;20272;-17
2022/08/06 07:03:46;;;;;;;2.85;0.85;;;;;;;;;;5069875;28;20240;-17
2022/08/06 07:06:13;;;;;;;2.53;0.60;;;;;;;;;;5068980;28;20251;-17
2022/08/06 07:09:02;;;;;;;2.60;0.80;;;;;;;;;;5069815;28;20380;-17
2022/08/06 07:11:41;;;;;;;2.88;0.70;;;;;;;;;;5058581;28;20268;-17
2022/08/06 07:14:28;;;;;;;1.35;0.60;;;;;;;;;;5072859;28;20240;-17
2022/08/06 07:17:00;;;;;;;2.58;0.77;;;;;;;;;;5073067;28;20291;-17
2022/08/06 07:19:27;;;;;;;3.47;0.70;;;;;;;;;;5071904;28;20229;-17
2022/08/06 07:21:57;;;;;;;3.10;1.02;;;;;;;;;;5072931;28;20325;-17
2022/08/06 07:24:26;;;;;;;1.70;0.60;;;;;;;;;;5072848;28;20229;-17
2022/08/06 07:27:06;;;;;;;2.78;0.90;;;;;;;;;;5072569;28;20631;-17
2022/08/06 07:29:33;;;;;;;2.47;0.70;;;;;;;;;;5071881;28;20237;-17
2022/08/06 07:32:21;;;;;;;1.17;0.60;;;;;;;;;;5071935;28;20240;-17
2022/08/06 07:34:58;;;;;;;0.90;0.52;;;;;;;;;;5072599;28;21038;-17
2022/08/06 07:37:26;;;;;;;2.10;0.60;;;;;;;;;;5058240;28;20237;-17
2022/08/06 07:40:08;;;;;;;2.92;0.70;;;;;;;;;;5071673;28;20229;-17
2022/08/06 07:42:35;;;;;;;2.25;0.70;;;;;;;;;;5072769;28;20243;-17
2022/08/06 07:45:03;;;;;;;1.33;0.47;;;;;;;;;;5072342;28;20680;-17
2022/08/06 07:47:38;;;;;;;1.85;0.60;;;;;;;;;;5069397;28;20232;-17
2022/08/06 07:50:22;;;;;;;1.75;0.68;;;;;;;;;;5071492;28;20244;-17
2022/08/06 07:52:50;;;;;;;1.85;0.52;;;;;;;;;;5072405;28;20284;-17
2022/08/06 07:55:21;;;;;;;3.33;0.80;;;;;;;;;;5072264;28;20230;-17
2022/08/06 07:57:49;;;;;;;2.05;0.60;;;;;;;;;;5072235;28;20225;-17
2022/08/06 08:00:25;;;;;;;2.78;0.68;;;;;;;;;;5070679;28;20236;-17
2022/08/06 08:08:47;;;;;;;1.08;0.55;;;;;;;;;;5071740;28;20312;-17
2022/08/06 08:11:16;;;;;;;1.42;0.70;;;;;;;;;;5071113;28;20879;-17
2022/08/06 08:13:47;;;;;;;1.23;0.52;;;;;;;;;;5071779;28;20253;-17
2022/08/06 08:16:22;;;;;;;1.88;0.65;;;;;;;;;;5071628;28;21107;-17
2022/08/06 08:18:59;;;;;;;1.45;0.50;;;;;;;;;;5071972;28;20584;-17
2022/08/06 08:21:32;;;;;;;1.10;0.60;;;;;;;;;;5069949;28;20241;-17
2022/08/06 08:24:01;;;;;;;1.50;0.50;;;;;;;;;;5070859;28;20237;-17
2022/08/06 08:26:30;;;;;;;2.25;0.70;;;;;;;;;;5071921;28;20971;-17
2022/08/06 08:29:17;;;;;;;2.30;0.50;;;;;;;;;;5071632;28;20253;-17
2022/08/06 08:31:55;;;;;;;1.20;0.50;;;;;;;;;;5071565;28;20257;-17
2022/08/06 08:34:26;;;;;;;3.80;0.60;;;;;;;;;;5070758;28;20700;-17
2022/08/06 08:36:56;;;;;;;1.52;0.73;;;;;;;;;;5058100;28;21142;-17
2022/08/06 08:39:27;;;;;;;1.48;0.50;;;;;;;;;;5071258;28;20344;-17
2022/08/06 08:42:06;;;;;;;2.13;0.70;;;;;;;;;;5071838;28;20240;-17
2022/08/06 08:44:34;;;;;;;0.63;0.45;;;;;;;;;;5070970;28;20232;-17
2022/08/06 08:47:02;;;;;;;1.65;0.70;;;;;;;;;;5071228;28;20235;-17
2022/08/06 08:49:39;;;;;;;2.85;0.60;;;;;;;;;;5071115;28;20229;-17
2022/08/06 08:52:14;;;;;;;1.65;0.60;;;;;;;;;;5071355;28;20240;-17
2022/08/06 08:54:46;;;;;;;2.92;0.90;;;;;;;;;;5071254;28;20240;-17
2022/08/06 08:57:18;;;;;;;2.38;0.50;;;;;;;;;;5070249;28;20226;-17
2022/08/06 09:00:06;;;;;;;1.63;0.60;;;;;;;;;;5071440;28;20237;-17
2022/08/06 09:02:37;;;;;;;1.30;0.50;;;;;;;;;;5071101;28;21145;-17
2022/08/06 09:05:05;;;;;;;4.03;0.52;;;;;;;;;;5071835;28;20225;-17
2022/08/06 09:07:37;;;;;;;1.67;0.50;;;;;;;;;;5082336;28;20229;-17
2022/08/06 09:10:07;;;;;;;1.00;0.40;;;;;;;;;;5056977;28;20264;-17
2022/08/06 09:12:39;;;;;;;2.63;0.60;;;;;;;;;;5071115;28;20249;-17
2022/08/06 09:15:11;;;;;;;3.08;0.70;;;;;;;;;;5071011;28;20241;-17
2022/08/06 09:17:43;;;;;;;3.25;0.73;;;;;;;;;;5070248;28;20236;-17
2022/08/06 09:20:30;;;;;;;3.63;0.80;;;;;;;;;;5070431;28;20340;-17
2022/08/06 09:22:59;;;;;;;1.60;0.60;;;;;;;;;;5070104;28;20237;-17
2022/08/06 09:25:36;;;;;;;1.40;0.50;;;;;;;;;;5071261;28;20226;-17
2022/08/06 09:28:29;;;;;;;1.30;0.63;;;;;;;;;;5069869;28;20240;-17
2022/08/06 09:30:58;;;;;;;2.08;0.70;;;;;;;;;;5070715;28;20229;-17
2022/08/06 09:33:26;;;;;;;1.45;0.57;;;;;;;;;;5069762;28;20233;-17
2022/08/06 09:36:13;;;;;;;2.22;0.60;;;;;;;;;;5066748;28;20273;-18
2022/08/06 09:38:56;;;;;;;2.60;0.63;;;;;;;;;;5070587;28;20257;-16
2022/08/06 09:41:26;;;;;;;1.83;0.63;;;;;;;;;;5069951;28;20260;-18
2022/08/06 09:43:57;;;;;;;2.20;0.68;;;;;;;;;;5070558;28;20237;-17
2022/08/06 09:46:39;;;;;;;1.38;0.70;;;;;;;;;;5070479;28;20225;-17
2022/08/06 09:49:06;;;;;;;1.48;0.40;;;;;;;;;;5070491;28;20232;-17
2022/08/06 09:52:09;;;;;;;2.95;0.47;;;;;;;;;;5069318;28;20271;-18
2022/08/06 09:54:37;;;;;;;1.52;0.47;;;;;;;;;;5070437;28;20291;-17
2022/08/06 09:57:04;;;;;;;1.00;0.50;;;;;;;;;;5070167;28;20243;-17
2022/08/06 09:59:43;;;;;;;1.70;0.70;;;;;;;;;;5070453;28;20234;-17
2022/08/06 10:02:17;;;;;;;0.55;0.40;;;;;;;;;;5069370;28;20237;-18
2022/08/06 10:04:50;;;;;;;2.92;0.82;;;;;;;;;;5069986;28;20286;-17
2022/08/06 10:07:28;;;;;;;1.08;0.50;;;;;;;;;;5070262;28;20316;-17
2022/08/06 10:10:07;;;;;;;1.10;0.50;;;;;;;;;;5056367;28;20246;-17
2022/08/06 10:12:35;;;;;;;2.80;0.50;;;;;;;;;;5069778;28;20766;-17
2022/08/06 10:15:06;;;;;;;1.77;0.40;;;;;;;;;;5070114;28;20237;-17
2022/08/06 10:17:35;;;;;;;3.38;0.60;;;;;;;;;;5070031;28;20232;-17
2022/08/06 10:20:19;;;;;;;2.42;0.60;;;;;;;;;;5069719;28;20221;-17
2022/08/06 10:22:53;;;;;;;1.63;0.60;;;;;;;;;;5068763;28;20245;-18
2022/08/06 10:25:24;;;;;;;2.50;0.50;;;;;;;;;;5056082;28;20233;-18
2022/08/06 10:27:56;;;;;;;1.88;0.50;;;;;;;;;;5070125;28;20291;-17
2022/08/06 10:30:26;;;;;;;2.00;0.70;;;;;;;;;;5069742;28;20245;-17
2022/08/06 10:32:56;;;;;;;1.80;0.60;;;;;;;;;;5069829;28;20634;-17
2022/08/06 10:35:26;;;;;;;2.05;0.57;;;;;;;;;;5069271;28;20229;-17
2022/08/06 10:37:57;;;;;;;0.90;0.47;;;;;;;;;;5069840;28;20997;-17
2022/08/06 10:40:30;;;;;;;2.50;0.70;;;;;;;;;;5069913;28;20308;-17
2022/08/06 10:42:58;;;;;;;2.03;0.50;;;;;;;;;;5069725;28;21102;-17
2022/08/06 10:45:28;;;;;;;1.42;0.60;;;;;;;;;;5070358;28;20229;-17
2022/08/06 10:48:15;;;;;;;1.58;0.60;;;;;;;;;;5061567;28;20245;-17
2022/08/06 10:51:03;;;;;;;1.20;0.40;;;;;;;;;;5073695;28;20240;-17
2022/08/06 10:53:32;;;;;;;2.90;0.65;;;;;;;;;;5073237;28;20367;-17
2022/08/06 10:56:19;;;;;;;2.25;0.50;;;;;;;;;;5067633;28;20236;-18
2022/08/06 10:58:52;;;;;;;0.75;0.50;;;;;;;;;;5061750;28;20328;-17
2022/08/06 11:01:22;;;;;;;2.90;0.70;;;;;;;;;;5070882;28;20941;-17
2022/08/06 11:03:58;;;;;;;2.70;0.60;;;;;;;;;;5072943;28;20751;-17
2022/08/06 11:06:36;;;;;;;1.35;0.50;;;;;;;;;;5072057;28;20233;-17
2022/08/06 11:09:08;;;;;;;2.40;0.30;;;;;;;;;;5072995;28;20225;-17
2022/08/06 11:11:42;;;;;;;0.77;0.38;;;;;;;;;;5072948;28;20249;-17
2022/08/06 11:14:29;;;;;;;1.10;0.50;;;;;;;;;;5072771;28;20226;-17
2022/08/06 11:16:59;;;;;;;2.17;0.40;;;;;;;;;;5072966;28;20246;-21
2022/08/06 11:19:44;;;;;;;1.88;0.40;;;;;;;;;;5071916;28;20238;-17
2022/08/06 11:22:34;;;;;;;1.02;0.52;;;;;;;;;;5061380;28;20245;-17
2022/08/06 11:25:02;;;;;;;1.00;0.40;;;;;;;;;;5072628;28;20342;-17
2022/08/06 11:27:53;;;;;;;2.05;0.40;;;;;;;;;;5073116;28;20328;-17
2022/08/06 11:30:36;;;;;;;3.83;0.80;;;;;;;;;;5071871;28;20231;-17
2022/08/06 11:33:05;;;;;;;1.23;0.45;;;;;;;;;;5072820;28;20245;-17
2022/08/06 11:35:41;;;;;;;0.70;0.47;;;;;;;;;;5072365;28;20329;-17
2022/08/06 11:38:33;;;;;;;3.47;0.60;;;;;;;;;;5072411;28;20253;-17
2022/08/06 11:41:01;;;;;;;1.70;0.50;;;;;;;;;;5071207;28;20231;-17
2022/08/06 11:43:48;;;;;;;2.88;0.68;;;;;;;;;;5072937;28;20230;-17
2022/08/06 11:46:30;;;;;;;2.72;0.70;;;;;;;;;;5072139;28;20233;-17
2022/08/06 11:49:16;;;;;;;3.72;0.68;;;;;;;;;;5072244;28;20241;-17
2022/08/06 11:51:46;;;;;;;1.13;0.60;;;;;;;;;;5071471;28;20237;-17
2022/08/06 11:54:26;;;;;;;0.65;0.60;;;;;;;;;;5072134;28;20318;-17
2022/08/06 11:57:13;;;;;;;1.40;0.50;;;;;;;;;;5071176;28;20349;-17
2022/08/06 12:00:09;;;;;;;2.05;0.57;;;;;;;;;;5072075;28;20230;-17
2022/08/06 12:02:56;;;;;;;1.35;0.60;;;;;;;;;;5066102;28;20236;-17
2022/08/06 12:05:34;;;;;;;1.23;0.60;;;;;;;;;;5072151;28;21521;-17
2022/08/06 12:08:27;;;;;;;0.95;0.50;;;;;;;;;;5072339;28;20313;-17
2022/08/06 12:11:27;;;;;;;2.25;0.50;;;;;;;;;;5060453;28;20237;-17
2022/08/06 12:13:55;;;;;;;1.55;0.50;;;;;;;;;;5071084;28;20265;-17
2022/08/06 12:16:42;;;;;;;1.60;0.50;;;;;;;;;;5071670;28;20696;-17
2022/08/06 12:19:20;;;;;;;1.58;0.63;;;;;;;;;;5071677;28;20715;-17
2022/08/06 12:21:56;;;;;;;1.05;0.47;;;;;;;;;;5071332;28;20245;-17
2022/08/06 12:24:25;;;;;;;2.83;0.63;;;;;;;;;;5070950;28;20328;-17
2022/08/06 12:27:11;;;;;;;3.30;1.00;;;;;;;;;;5071674;28;20757;-17
2022/08/06 12:29:39;;;;;;;2.03;0.82;;;;;;;;;;5071550;28;20253;-17
2022/08/06 12:32:21;;;;;;;2.42;0.50;;;;;;;;;;5071872;28;20238;-17
2022/08/06 12:34:51;;;;;;;2.15;0.70;;;;;;;;;;5071029;28;20268;-18
2022/08/06 12:37:34;;;;;;;2.35;0.50;;;;;;;;;;5068468;28;20637;-17
2022/08/06 12:40:31;;;;;;;1.10;0.60;;;;;;;;;;5071794;28;20232;-17
2022/08/06 12:43:09;;;;;;;0.98;0.60;;;;;;;;;;5071670;28;20764;-17
2022/08/06 12:45:41;;;;;;;1.13;0.50;;;;;;;;;;5070458;28;20272;-17
2022/08/06 12:48:29;;;;;;;1.33;0.55;;;;;;;;;;5061827;28;20225;-17
2022/08/06 12:51:04;;;;;;;1.65;0.60;;;;;;;;;;5071318;28;20226;-17
2022/08/06 12:53:42;;;;;;;1.25;0.68;;;;;;;;;;5071276;28;21089;-17
2022/08/06 12:56:14;;;;;;;1.15;0.52;;;;;;;;;;5070198;28;20246;-17
2022/08/06 12:58:58;;;;;;;3.65;0.68;;;;;;;;;;5071428;28;20299;-17
2022/08/06 13:01:27;;;;;;;1.58;0.65;;;;;;;;;;5071283;28;20819;-17
2022/08/06 13:04:14;;;;;;;0.57;0.43;;;;;;;;;;5071460;28;20241;-17
2022/08/06 13:06:44;;;;;;;1.33;0.57;;;;;;;;;;5057190;28;20241;-17
2022/08/06 13:09:16;;;;;;;1.52;0.77;;;;;;;;;;5070249;28;20681;-17
2022/08/06 13:11:44;;;;;;;2.13;0.60;;;;;;;;;;5070933;28;20277;-17
2022/08/06 13:14:18;;;;;;;2.45;0.75;;;;;;;;;;5070954;28;20727;-17
2022/08/06 13:16:48;;;;;;;3.42;0.77;;;;;;;;;;5070739;28;20229;-17
2022/08/06 13:19:23;;;;;;;2.03;0.60;;;;;;;;;;5070799;28;20221;-17
2022/08/06 13:21:59;;;;;;;2.53;0.80;;;;;;;;;;5070553;28;20249;-17
2022/08/06 13:24:28;;;;;;;1.88;0.57;;;;;;;;;;5071001;28;20221;-17
2022/08/06 13:27:01;;;;;;;0.73;0.52;;;;;;;;;;5070794;28;20244;-17
2022/08/06 13:29:32;;;;;;;1.15;0.60;;;;;;;;;;5069776;28;20240;-17
2022/08/06 13:32:23;;;;;;;1.98;0.80;;;;;;;;;;5069171;28;20704;-17
2022/08/06 13:35:00;;;;;;;2.13;0.80;;;;;;;;;;5070662;28;20237;-17
2022/08/06 13:37:45;;;;;;;1.02;0.60;;;;;;;;;;5056407;28;20229;-17
2022/08/06 13:40:37;;;;;;;1.60;0.60;;;;;;;;;;5070095;28;20241;-17
2022/08/06 13:43:07;;;;;;;0.98;0.70;;;;;;;;;;5070801;28;20718;-17
2022/08/06 13:45:35;;;;;;;2.17;0.90;;;;;;;;;;5070520;28;20965;-17
2022/08/06 13:48:23;;;;;;;2.05;0.82;;;;;;;;;;5069567;28;20229;-17
2022/08/06 13:50:51;;;;;;;1.83;0.90;;;;;;;;;;5070235;28;20233;-17
2022/08/06 13:53:19;;;;;;;1.25;0.88;;;;;;;;;;5069650;28;20233;-17
2022/08/06 13:55:48;;;;;;;3.28;0.60;;;;;;;;;;5070312;28;20265;-17
2022/08/06 13:58:29;;;;;;;1.70;0.60;;;;;;;;;;5070305;28;20867;-17
2022/08/06 14:00:57;;;;;;;3.58;1.00;;;;;;;;;;5069789;28;20715;-17
2022/08/06 14:03:24;;;;;;;1.48;0.73;;;;;;;;;;5070057;28;20225;-17
2022/08/06 14:05:54;;;;;;;1.60;0.52;;;;;;;;;;5070444;28;20229;-17
2022/08/06 14:08:26;;;;;;;1.40;0.70;;;;;;;;;;5070587;28;20268;-17
2022/08/06 14:11:03;;;;;;;1.23;0.65;;;;;;;;;;5070161;28;20263;-17
2022/08/06 14:13:32;;;;;;;1.40;0.70;;;;;;;;;;5055473;28;20321;-17
2022/08/06 14:16:00;;;;;;;1.08;0.70;;;;;;;;;;5069965;28;20240;-17
2022/08/06 14:18:28;;;;;;;2.05;0.60;;;;;;;;;;5070093;28;20257;-16
2022/08/06 14:21:00;;;;;;;1.77;0.80;;;;;;;;;;5068941;28;20229;-17
2022/08/06 14:23:29;;;;;;;1.63;0.77;;;;;;;;;;5070170;28;20778;-17
2022/08/06 14:26:08;;;;;;;1.83;0.90;;;;;;;;;;5069390;28;20593;-17
2022/08/06 14:28:39;;;;;;;1.58;0.65;;;;;;;;;;5069883;28;20240;-17
2022/08/06 14:31:20;;;;;;;1.45;0.70;;;;;;;;;;5069793;28;20356;-17
2022/08/06 14:33:55;;;;;;;3.83;0.70;;;;;;;;;;5056066;28;20672;-17
2022/08/06 14:36:27;;;;;;;2.92;0.90;;;;;;;;;;5069369;28;20286;-17
2022/08/06 14:38:55;;;;;;;1.67;0.75;;;;;;;;;;5069858;28;20233;-17
2022/08/06 14:47:03;;;;;;;1.65;0.98;;;;;;;;;;5069038;28;20914;-17
2022/08/06 14:49:38;;;;;;;1.05;0.80;;;;;;;;;;5070131;28;20320;-17
2022/08/06 14:52:18;;;;;;;4.53;1.10;;;;;;;;;;5069439;28;20320;-17
2022/08/06 14:54:51;;;;;;;2.30;1.13;;;;;;;;;;5069635;28;20234;-17
2022/08/06 14:57:35;;;;;;;1.30;0.68;;;;;;;;;;5068810;28;20237;-17
2022/08/06 15:00:22;;;;;;;1.70;0.85;;;;;;;;;;5069641;28;20241;-17
2022/08/06 15:03:01;;;;;;;0.95;0.75;;;;;;;;;;5069680;28;20321;-17
2022/08/06 15:05:28;;;;;;;1.20;0.90;;;;;;;;;;5069493;28;20776;-17
2022/08/06 15:08:16;;;;;;;1.52;1.10;;;;;;;;;;5068613;28;20225;-17
2022/08/06 15:10:43;;;;;;;2.55;1.10;;;;;;;;;;5069329;28;20229;-17
2022/08/06 15:13:12;;;;;;;1.77;1.17;;;;;;;;;;5069378;28;21030;-17
2022/08/06 15:15:40;;;;;;;2.50;1.00;;;;;;;;;;5069372;28;20705;-17
2022/08/06 15:18:14;;;;;;;1.30;0.80;;;;;;;;;;5069446;28;20256;-17
2022/08/06 15:21:02;;;;;;;1.85;0.82;;;;;;;;;;5068673;28;20233;-17
2022/08/06 15:23:30;;;;;;;1.35;0.90;;;;;;;;;;5069386;28;20229;-17
2022/08/06 15:26:17;;;;;;;1.98;0.90;;;;;;;;;;5069016;28;20234;-17
2022/08/06 15:29:06;;;;;;;2.10;0.80;;;;;;;;;;5069291;28;20241;-17
2022/08/06 15:31:41;;;;;;;1.00;0.90;;;;;;;;;;5070177;28;20229;-17
2022/08/06 15:34:09;;;;;;;1.42;1.08;;;;;;;;;;5072858;28;20240;-17
2022/08/06 15:36:39;;;;;;;2.10;1.00;;;;;;;;;;5061977;28;20230;-17
2022/08/06 15:39:27;;;;;;;2.97;0.80;;;;;;;;;;5072685;28;20226;-17
2022/08/06 15:42:14;;;;;;;1.10;0.90;;;;;;;;;;5071684;28;20230;-17